createdAt,value
2023-03-21T00:00:56.915Z,7.07
2023-03-21T00:03:59.901Z,7.28
2023-03-21T00:07:03.011Z,8.55
2023-03-21T00:10:15.472Z,8.77
2023-03-21T00:13:21.331Z,6.85
2023-03-21T00:16:37.599Z,5.05
2023-03-21T00:19:42.392Z,6.25
2023-03-21T00:22:45.177Z,7.47
2023-03-21T00:25:49.276Z,7.00
2023-03-21T00:31:54.973Z,4.82
2023-03-21T00:35:25.848Z,5.97
2023-03-21T00:38:22.298Z,6.90
2023-03-21T00:41:41.508Z,6.55
2023-03-21T00:44:45.989Z,8.38
2023-03-21T00:47:49.111Z,9.80
2023-03-21T00:50:54.061Z,6.90
2023-03-21T00:53:59.445Z,7.03
2023-03-21T00:57:05.258Z,6.60
2023-03-21T01:00:10.789Z,7.30
2023-03-21T01:03:24.289Z,6.82
2023-03-21T01:06:28.176Z,6.72
2023-03-21T01:09:31.325Z,6.00
2023-03-21T01:12:35.529Z,7.73
2023-03-21T01:15:44.997Z,13.30
2023-03-21T01:18:47.799Z,8.57
2023-03-21T01:21:50.583Z,8.02
2023-03-21T01:24:58.496Z,7.38
2023-03-21T01:28:05.611Z,11.07
2023-03-21T01:31:09.633Z,6.65
2023-03-21T01:37:17.611Z,8.35
2023-03-21T01:40:24.282Z,8.80
2023-03-21T01:43:31.777Z,7.25
2023-03-21T01:46:53.991Z,8.63
2023-03-21T01:50:04.837Z,7.55
2023-03-21T01:53:07.818Z,7.60
2023-03-21T01:56:17.432Z,7.07
2023-03-21T01:59:28.289Z,6.10
2023-03-21T02:02:32.397Z,8.13
2023-03-21T02:08:45.274Z,8.07
2023-03-21T02:11:48.380Z,7.25
2023-03-21T02:14:54.388Z,6.60
2023-03-21T02:18:05.684Z,9.07
2023-03-21T02:21:42.554Z,6.60
2023-03-21T02:25:39.372Z,7.75
2023-03-21T02:28:48.264Z,6.97
2023-03-21T02:32:20.381Z,8.98
2023-03-21T02:35:55.409Z,8.48
2023-03-21T02:39:15.968Z,10.95
2023-03-21T02:42:30.477Z,9.27
2023-03-21T02:45:44.468Z,13.32
2023-03-21T02:48:56.033Z,8.23
2023-03-21T02:52:14.451Z,8.40
2023-03-21T02:55:28.208Z,10.88
2023-03-21T02:58:33.947Z,10.70
2023-03-21T03:01:37.956Z,10.85
2023-03-21T03:04:41.714Z,11.13
2023-03-21T03:08:05.245Z,10.48
2023-03-21T03:11:26.068Z,8.50
2023-03-21T03:15:02.249Z,10.15
2023-03-21T03:18:16.477Z,10.88
2023-03-21T03:21:25.280Z,9.50
2023-03-21T03:24:33.109Z,14.77
2023-03-21T03:27:44.805Z,9.98
2023-03-21T03:31:07.149Z,11.13
2023-03-21T03:34:20.758Z,10.73
2023-03-21T03:37:29.593Z,10.88
2023-03-21T03:40:42.434Z,21.65
2023-03-21T03:43:53.564Z,35.85
2023-03-21T03:47:05.919Z,45.55
2023-03-21T03:50:19.348Z,85.43
2023-03-21T03:53:28.705Z,67.95
2023-03-21T03:56:33.942Z,61.22
2023-03-21T03:59:42.638Z,70.85
2023-03-21T04:02:47.395Z,161.15
2023-03-21T04:05:51.210Z,106.22
2023-03-21T04:08:54.961Z,40.25
2023-03-21T04:11:59.408Z,38.38
2023-03-21T04:15:10.703Z,11.23
2023-03-21T04:18:15.139Z,12.80
2023-03-21T04:21:18.846Z,40.25
2023-03-21T04:24:23.547Z,39.50
2023-03-21T04:27:27.482Z,34.60
2023-03-21T04:30:34.432Z,11.15
2023-03-21T04:33:38.741Z,11.07
2023-03-21T04:36:45.335Z,12.13
2023-03-21T04:39:49.469Z,10.80
2023-03-21T04:42:53.249Z,8.43
2023-03-21T04:45:58.720Z,11.88
2023-03-21T04:49:02.825Z,9.63
2023-03-21T04:55:11.383Z,8.07
2023-03-21T04:58:15.497Z,8.05
2023-03-21T05:04:25.163Z,9.07
2023-03-21T05:07:31.336Z,11.00
2023-03-21T05:10:34.988Z,8.10
2023-03-21T05:13:39.054Z,20.45
2023-03-21T05:19:53.484Z,28.92
2023-03-21T05:22:57.224Z,61.30
2023-03-21T05:26:00.847Z,34.13
2023-03-21T05:29:04.950Z,19.85
2023-03-21T05:32:10.374Z,52.45
2023-03-21T05:35:14.599Z,9.73
2023-03-21T05:38:19.111Z,11.90
2023-03-21T05:41:22.967Z,12.13
2023-03-21T05:44:26.871Z,32.75
2023-03-21T05:47:32.707Z,11.13
2023-03-21T05:50:36.911Z,12.63
2023-03-21T05:53:40.713Z,22.15
2023-03-21T05:56:44.570Z,18.42
2023-03-21T05:59:49.246Z,15.13
2023-03-21T06:02:55.151Z,14.52
2023-03-21T06:05:59.420Z,13.23
2023-03-21T06:09:03.670Z,16.75
2023-03-21T06:12:08.300Z,24.60
2023-03-21T06:15:13.943Z,15.90
2023-03-21T06:18:19.717Z,48.20
2023-03-21T06:21:26.401Z,99.07
2023-03-21T06:24:30.598Z,47.35
2023-03-21T06:27:34.082Z,223.23
2023-03-21T06:30:37.485Z,201.38
2023-03-21T06:33:42.919Z,60.13
2023-03-21T06:36:47.667Z,54.22
2023-03-21T06:39:53.241Z,137.70
2023-03-21T06:42:57.980Z,80.65
2023-03-21T06:46:02.587Z,56.77
2023-03-21T06:49:07.738Z,92.30
2023-03-21T06:52:11.728Z,81.40
2023-03-21T06:55:15.323Z,96.55
2023-03-21T06:58:19.518Z,97.72
2023-03-21T07:01:23.165Z,125.60
2023-03-21T07:04:28.308Z,96.47
2023-03-21T07:07:33.478Z,185.23
2023-03-21T07:10:40.548Z,130.77
2023-03-21T07:13:44.352Z,98.60
2023-03-21T07:16:48.640Z,127.60
2023-03-21T07:19:53.989Z,170.27
2023-03-21T07:22:58.007Z,220.85
2023-03-21T07:29:06.372Z,274.63
2023-03-21T07:32:10.333Z,183.55
2023-03-21T07:35:18.257Z,171.00
2023-03-21T07:38:23.167Z,160.73
2023-03-21T07:41:26.613Z,101.82
2023-03-21T07:44:30.877Z,74.07
2023-03-21T07:50:40.235Z,140.75
2023-03-21T07:53:45.336Z,57.25
2023-03-21T07:56:49.822Z,36.38
2023-03-21T07:59:53.707Z,45.75
2023-03-21T08:02:59.589Z,20.33
2023-03-21T08:06:05.584Z,23.08
2023-03-21T08:09:10.058Z,25.83
2023-03-21T08:12:14.120Z,26.75
2023-03-21T08:15:17.883Z,25.27
2023-03-21T08:18:21.668Z,10.68
2023-03-21T08:21:27.544Z,18.35
2023-03-21T08:24:31.253Z,9.95
2023-03-21T08:27:35.208Z,13.63
2023-03-21T08:30:39.921Z,25.20
2023-03-21T08:33:43.714Z,9.13
2023-03-21T08:36:48.850Z,31.60
2023-03-21T08:39:53.287Z,33.13
2023-03-21T08:42:57.234Z,54.65
2023-03-21T08:46:00.760Z,82.80
2023-03-21T08:49:04.742Z,59.83
2023-03-21T08:52:10.548Z,81.95
2023-03-21T08:55:16.620Z,78.72
2023-03-21T08:58:21.169Z,121.03
2023-03-21T09:01:24.741Z,122.57
2023-03-21T09:04:28.509Z,80.00
2023-03-21T09:07:36.472Z,147.70
2023-03-21T09:10:40.472Z,113.97
2023-03-21T09:13:44.358Z,72.45
2023-03-21T09:16:48.426Z,113.05
2023-03-21T09:22:59.890Z,101.72
2023-03-21T09:26:04.220Z,74.35
2023-03-21T09:32:13.784Z,37.38
2023-03-21T09:35:19.019Z,58.40
2023-03-21T09:38:30.844Z,36.13
2023-03-21T09:42:10.663Z,26.75
2023-03-21T09:45:24.749Z,30.70
2023-03-21T09:48:54.253Z,28.55
2023-03-21T09:52:05.742Z,18.85
2023-03-21T09:55:21.715Z,15.77
2023-03-21T09:58:32.597Z,14.82
2023-03-21T10:01:45.563Z,15.32
2023-03-21T10:04:49.568Z,15.68
2023-03-21T10:08:00.890Z,20.30
2023-03-21T10:11:13.675Z,19.98
2023-03-21T10:14:24.623Z,27.52
2023-03-21T10:17:34.685Z,19.75
2023-03-21T10:20:40.099Z,29.45
2023-03-21T10:23:44.552Z,19.60
2023-03-21T10:26:52.847Z,21.95
2023-03-21T10:29:57.612Z,20.10
2023-03-21T10:33:06.124Z,29.60
2023-03-21T10:36:14.589Z,30.08
2023-03-21T10:39:28.346Z,27.02
2023-03-21T10:42:36.789Z,33.10
2023-03-21T10:45:40.947Z,21.02
2023-03-21T10:48:47.488Z,22.98
2023-03-21T10:51:57.948Z,29.08
2023-03-21T10:55:17.821Z,17.70
2023-03-21T10:58:28.899Z,27.83
2023-03-21T11:01:40.577Z,16.98
2023-03-21T11:04:47.074Z,49.25
2023-03-21T11:07:58.954Z,46.70
2023-03-21T11:11:06.560Z,41.95
2023-03-21T11:14:33.778Z,51.47
2023-03-21T11:17:37.754Z,53.38
2023-03-21T11:20:50.571Z,52.67
2023-03-21T11:23:58.125Z,38.28
2023-03-21T11:27:01.950Z,33.72
2023-03-21T11:30:23.106Z,21.02
2023-03-21T11:33:33.996Z,22.50
2023-03-21T11:36:40.290Z,18.02
2023-03-21T11:39:47.318Z,20.00
2023-03-21T11:42:54.478Z,20.70
2023-03-21T11:46:04.372Z,17.50
2023-03-21T11:49:12.349Z,23.75
2023-03-21T11:52:27.240Z,18.65
2023-03-21T11:55:46.975Z,19.20
2023-03-21T11:59:27.257Z,20.42
2023-03-21T12:03:15.274Z,25.20
2023-03-21T12:06:30.812Z,23.77
2023-03-21T12:09:42.296Z,22.73
2023-03-21T12:12:56.331Z,24.63
2023-03-21T12:16:23.366Z,22.50
2023-03-21T12:20:11.265Z,23.20
2023-03-21T12:23:35.304Z,23.67
2023-03-21T12:26:52.314Z,19.10
2023-03-21T12:30:14.949Z,24.15
2023-03-21T12:33:40.613Z,23.75
2023-03-21T12:37:05.312Z,22.85
2023-03-21T12:43:34.982Z,23.88
2023-03-21T12:46:46.586Z,24.98
2023-03-21T12:49:57.662Z,23.38
2023-03-21T12:53:28.231Z,26.23
2023-03-21T12:56:42.706Z,20.77
2023-03-21T12:59:57.721Z,23.98
2023-03-21T13:03:05.044Z,25.27
2023-03-21T13:06:13.401Z,22.08
2023-03-21T13:09:37.408Z,24.50
2023-03-21T13:13:18.488Z,24.80
2023-03-21T13:16:27.908Z,25.55
2023-03-21T13:19:39.855Z,26.38
2023-03-21T13:22:42.702Z,27.77
2023-03-21T13:25:51.444Z,27.02
2023-03-21T13:28:54.267Z,27.30
2023-03-21T13:32:10.510Z,22.88
2023-03-21T13:35:27.147Z,22.95
2023-03-21T13:38:32.846Z,22.98
2023-03-21T13:41:47.250Z,31.08
2023-03-21T13:47:57.951Z,23.17
2023-03-21T13:51:04.417Z,23.17
2023-03-21T13:54:21.704Z,22.73
2023-03-21T13:57:39.626Z,26.58
2023-03-21T14:00:42.603Z,23.15
2023-03-21T14:03:47.163Z,24.63
2023-03-21T14:06:56.943Z,25.77
2023-03-21T14:10:06.356Z,22.25
2023-03-21T14:13:16.946Z,24.55
2023-03-21T14:16:21.974Z,26.13
2023-03-21T14:19:31.796Z,21.95
2023-03-21T14:22:34.668Z,23.08
2023-03-21T14:25:47.562Z,21.70
2023-03-21T14:28:53.854Z,24.02
2023-03-21T14:31:59.990Z,24.13
2023-03-21T14:35:04.259Z,22.20
2023-03-21T14:38:18.938Z,27.52
2023-03-21T14:41:25.979Z,24.38
2023-03-21T14:44:50.992Z,24.65
2023-03-21T14:48:00.416Z,22.00
2023-03-21T14:51:08.032Z,22.88
2023-03-21T14:54:17.944Z,23.67
2023-03-21T14:57:24.865Z,24.65
2023-03-21T15:00:32.170Z,25.10
2023-03-21T15:03:37.454Z,22.10
2023-03-21T15:06:51.906Z,23.52
2023-03-21T15:13:03.156Z,21.77
2023-03-21T15:16:10.463Z,27.15
2023-03-21T15:19:22.823Z,24.25
2023-03-21T15:22:35.026Z,28.67
2023-03-21T15:25:39.775Z,26.55
2023-03-21T15:28:45.270Z,24.88
2023-03-21T15:31:49.830Z,26.50
2023-03-21T15:34:56.302Z,21.77
2023-03-21T15:38:00.622Z,24.20
2023-03-21T15:41:27.076Z,20.83
2023-03-21T15:44:31.469Z,20.80
2023-03-21T15:47:44.599Z,27.85
2023-03-21T15:50:58.273Z,20.88
2023-03-21T15:54:03.513Z,24.40
2023-03-21T15:57:20.585Z,21.75
2023-03-21T16:00:31.492Z,25.63
2023-03-21T16:03:40.355Z,23.25
2023-03-21T16:06:57.354Z,23.73
2023-03-21T16:10:04.605Z,24.42
2023-03-21T16:13:07.687Z,21.88
2023-03-21T16:16:18.672Z,20.77
2023-03-21T16:19:23.347Z,25.48
2023-03-21T16:22:26.664Z,22.00
2023-03-21T16:25:31.037Z,21.87
2023-03-21T16:28:33.887Z,24.27
2023-03-21T16:31:37.638Z,20.13
2023-03-21T16:34:42.911Z,28.70
2023-03-21T16:37:47.989Z,26.08
2023-03-21T16:40:51.720Z,25.95
2023-03-21T16:43:55.396Z,43.78
2023-03-21T16:46:59.809Z,41.20
2023-03-21T16:50:25.072Z,32.45
2023-03-21T16:53:27.905Z,30.35
2023-03-21T16:56:40.021Z,41.60
2023-03-21T16:59:42.862Z,43.20
2023-03-21T17:02:45.968Z,42.75
2023-03-21T17:05:50.242Z,25.02
2023-03-21T17:08:54.473Z,26.08
2023-03-21T17:11:57.312Z,29.73
2023-03-21T17:15:00.361Z,40.33
2023-03-21T17:18:03.224Z,26.90
2023-03-21T17:21:14.316Z,30.60
2023-03-21T17:24:17.251Z,25.20
2023-03-21T17:27:20.611Z,38.30
2023-03-21T17:30:26.521Z,28.03
2023-03-21T17:33:29.449Z,29.23
2023-03-21T17:36:37.591Z,38.72
2023-03-21T17:39:42.856Z,27.17
2023-03-21T17:42:46.265Z,44.53
2023-03-21T17:45:49.274Z,84.77
2023-03-21T17:48:53.060Z,37.95
2023-03-21T17:51:57.284Z,57.55
2023-03-21T17:58:05.490Z,29.17
2023-03-21T18:01:08.426Z,78.57
2023-03-21T18:04:11.285Z,57.17
2023-03-21T18:07:29.696Z,53.95
2023-03-21T18:10:41.940Z,37.25
2023-03-21T18:13:45.966Z,29.45
2023-03-21T18:16:50.461Z,32.30
2023-03-21T18:19:53.870Z,36.88
2023-03-21T18:22:58.119Z,26.00
2023-03-21T18:26:01.022Z,24.70
2023-03-21T18:29:56.995Z,21.05
2023-03-21T18:32:27.271Z,24.30
2023-03-21T18:35:31.043Z,21.27
2023-03-21T18:38:35.373Z,19.75
2023-03-21T18:41:38.293Z,20.58
2023-03-21T18:44:45.526Z,19.30
2023-03-21T18:47:48.565Z,19.13
2023-03-21T18:50:51.431Z,21.60
2023-03-21T18:53:55.840Z,20.33
2023-03-21T18:57:35.106Z,18.50
2023-03-21T19:00:23.345Z,20.02
2023-03-21T19:03:35.675Z,17.10
2023-03-21T19:06:41.212Z,16.17
2023-03-21T19:10:09.448Z,20.92
2023-03-21T19:13:09.383Z,16.83
2023-03-21T19:16:12.248Z,15.13
2023-03-21T19:19:18.243Z,16.60
2023-03-21T19:22:21.145Z,16.27
2023-03-21T19:25:25.446Z,13.80
2023-03-21T19:28:28.299Z,13.93
2023-03-21T19:31:31.256Z,12.70
2023-03-21T19:34:34.542Z,11.70
2023-03-21T19:37:37.481Z,11.97
2023-03-21T19:40:43.855Z,14.25
2023-03-21T19:43:54.186Z,12.30
2023-03-21T19:46:57.817Z,11.50
2023-03-21T19:53:23.830Z,11.38
2023-03-21T19:56:28.630Z,11.98
2023-03-21T19:59:32.113Z,11.50
2023-03-21T20:02:36.540Z,11.07
2023-03-21T20:05:39.540Z,12.27
2023-03-21T20:09:13.703Z,12.63
2023-03-21T20:12:08.264Z,10.35
2023-03-21T20:15:19.588Z,11.77
2023-03-21T20:18:25.043Z,10.40
2023-03-21T20:21:34.895Z,9.80
2023-03-21T20:24:44.242Z,10.20
2023-03-21T20:31:15.193Z,9.35
2023-03-21T20:34:18.366Z,11.13
2023-03-21T20:37:21.147Z,8.45
2023-03-21T20:40:24.364Z,7.97
2023-03-21T20:44:14.334Z,9.83
2023-03-21T20:46:52.163Z,7.40
2023-03-21T20:49:56.629Z,8.37
2023-03-21T20:53:06.909Z,7.40
2023-03-21T20:56:10.633Z,8.68
2023-03-21T20:59:25.678Z,10.02
2023-03-21T21:02:29.782Z,8.50
2023-03-21T21:05:34.841Z,6.93
2023-03-21T21:08:38.050Z,6.75
2023-03-21T21:15:07.595Z,7.28
2023-03-21T21:18:10.826Z,6.40
2023-03-21T21:21:13.939Z,7.37
2023-03-21T21:24:16.845Z,6.53
2023-03-21T21:27:19.762Z,5.97
2023-03-21T21:30:24.676Z,7.97
2023-03-21T21:33:28.977Z,6.70
2023-03-21T21:36:31.796Z,8.57
2023-03-21T21:39:37.762Z,7.78
2023-03-21T21:42:43.024Z,9.40
2023-03-21T21:45:49.282Z,10.52
2023-03-21T21:48:53.206Z,9.70
2023-03-21T21:52:00.130Z,8.35
2023-03-21T21:55:06.522Z,8.27
2023-03-21T21:58:13.863Z,9.60
2023-03-21T22:01:21.627Z,9.88
2023-03-21T22:04:28.349Z,9.35
2023-03-21T22:07:32.396Z,9.70
2023-03-21T22:10:37.202Z,10.73
2023-03-21T22:13:42.130Z,11.65
2023-03-21T22:16:48.448Z,15.25
2023-03-21T22:20:04.711Z,10.52
2023-03-21T22:23:09.470Z,12.45
2023-03-21T22:26:14.360Z,13.32
2023-03-21T22:29:18.976Z,12.73
2023-03-21T22:32:24.420Z,11.80
2023-03-21T22:35:28.651Z,12.13
2023-03-21T22:38:34.765Z,12.88
2023-03-21T22:41:38.373Z,18.83
2023-03-21T22:44:42.126Z,15.52
2023-03-21T22:47:48.217Z,13.48
2023-03-21T22:50:51.965Z,12.90
2023-03-21T22:53:56.086Z,13.85
2023-03-21T22:57:00.186Z,14.63
2023-03-21T23:00:04.854Z,15.35
2023-03-21T23:03:10.754Z,13.63
2023-03-21T23:06:14.514Z,13.73
2023-03-21T23:09:18.827Z,17.05
2023-03-21T23:12:22.847Z,15.20
2023-03-21T23:18:34.059Z,14.95
2023-03-21T23:21:38.499Z,13.38
2023-03-21T23:24:42.070Z,14.90
2023-03-21T23:27:46.457Z,13.20
2023-03-21T23:30:50.766Z,17.48
2023-03-21T23:33:59.239Z,17.00
2023-03-21T23:37:03.229Z,17.20
2023-03-21T23:40:10.263Z,19.25
2023-03-21T23:43:14.219Z,19.52
2023-03-21T23:46:20.013Z,22.00
2023-03-21T23:49:26.874Z,22.02
2023-03-21T23:52:30.708Z,19.88
2023-03-21T23:55:34.355Z,24.15
2023-03-21T23:58:38.079Z,23.27
